Pagrindinis puslapis
METAR-TAF:

METAR-TAF

Oro uostai :

Noorvik, Aliaska, Jungtinės Amerikos Valstijos

platuma: 66-49-03N, ilguma: 161-01-20W, Aukštis: 17 m

Dabartinis oras

Ataskaita buvo paskelbta 40 minutes, ne 20:56 UTC
Ramus vėjas
Temperatūra 4°C
Drėgmė 87%
Slėgis 1001 hPa
Matomumas: 16.1 km
Su prošvaistėmis ne aukštis 2500 ft

METAR: PFNO 212056Z AUTO 00000KT 10SM BKN025 04/02 A2955 RMK AO2 SLP005 T00440022 50005

Laikas: 13:36 (21:36 UTC)


TAF: trūkstamas

Orai ataskaitas ir orų prognozės (METAR, TAF).

turimą stotys yra geltonos ir raudonos taškus žemėlapyje.

Perkelti pele per norėdami pamatyti stoties vardą.

Tada spustelėkite, norėdami matyti oro stebėjimo ir prognozės.

Norėdami pakeisti žemėlapį: spustelėkite ant žalios mygtukų su juodo kryžiaus žemyn,; žalią mygtuką su brūkšneliu, jei norite nutolinti; arba žalių rodyklių gretimoms žemėlapius.


METAR-TAF: